sensor_id;sensor_type;location;lat;lon;timestamp;P1;durP1;ratioP1;P2;durP2;ratioP2
29280;SDS011;25048;49.590;11.026;2022-12-19T00:01:24;38.47;;;15.03;;
29280;SDS011;25048;49.590;11.026;2022-12-19T00:03:58;30.90;;;13.63;;
29280;SDS011;25048;49.590;11.026;2022-12-19T00:06:23;32.73;;;13.43;;
29280;SDS011;25048;49.590;11.026;2022-12-19T00:08:52;28.80;;;12.67;;
29280;SDS011;25048;49.590;11.026;2022-12-19T00:11:24;32.50;;;13.17;;
29280;SDS011;25048;49.590;11.026;2022-12-19T00:13:52;36.20;;;14.60;;
29280;SDS011;25048;49.590;11.026;2022-12-19T00:16:20;33.90;;;13.00;;
29280;SDS011;25048;49.590;11.026;2022-12-19T00:18:50;34.77;;;13.63;;
29280;SDS011;25048;49.590;11.026;2022-12-19T00:21:19;32.77;;;12.77;;
29280;SDS011;25048;49.590;11.026;2022-12-19T00:23:49;30.67;;;13.37;;
29280;SDS011;25048;49.590;11.026;2022-12-19T00:26:21;38.60;;;14.60;;
29280;SDS011;25048;49.590;11.026;2022-12-19T00:28:57;29.93;;;12.33;;
29280;SDS011;25048;49.590;11.026;2022-12-19T00:31:27;34.40;;;12.90;;
29280;SDS011;25048;49.590;11.026;2022-12-19T00:33:57;38.50;;;14.80;;
29280;SDS011;25048;49.590;11.026;2022-12-19T00:36:25;31.90;;;13.40;;
29280;SDS011;25048;49.590;11.026;2022-12-19T00:38:55;39.30;;;13.70;;
29280;SDS011;25048;49.590;11.026;2022-12-19T00:41:25;39.70;;;14.10;;
29280;SDS011;25048;49.590;11.026;2022-12-19T00:43:55;34.40;;;14.10;;
29280;SDS011;25048;49.590;11.026;2022-12-19T00:46:25;31.63;;;13.70;;
29280;SDS011;25048;49.590;11.026;2022-12-19T00:48:53;37.10;;;14.37;;
29280;SDS011;25048;49.590;11.026;2022-12-19T00:51:22;32.73;;;13.60;;
29280;SDS011;25048;49.590;11.026;2022-12-19T00:53:52;29.60;;;13.27;;
29280;SDS011;25048;49.590;11.026;2022-12-19T00:56:21;38.13;;;13.97;;
29280;SDS011;25048;49.590;11.026;2022-12-19T00:58:51;41.87;;;14.50;;
29280;SDS011;25048;49.590;11.026;2022-12-19T01:01:20;36.33;;;14.13;;
29280;SDS011;25048;49.590;11.026;2022-12-19T01:03:49;37.83;;;14.00;;
29280;SDS011;25048;49.590;11.026;2022-12-19T01:06:17;36.57;;;13.57;;
29280;SDS011;25048;49.590;11.026;2022-12-19T01:08:45;37.40;;;13.37;;
29280;SDS011;25048;49.590;11.026;2022-12-19T01:11:12;37.03;;;14.93;;
29280;SDS011;25048;49.590;11.026;2022-12-19T01:13:40;28.50;;;12.97;;
29280;SDS011;25048;49.590;11.026;2022-12-19T01:16:09;37.67;;;15.20;;
29280;SDS011;25048;49.590;11.026;2022-12-19T01:18:38;37.13;;;14.47;;
29280;SDS011;25048;49.590;11.026;2022-12-19T01:21:06;38.70;;;14.13;;
29280;SDS011;25048;49.590;11.026;2022-12-19T01:23:36;30.37;;;12.57;;
29280;SDS011;25048;49.590;11.026;2022-12-19T01:26:03;32.13;;;13.73;;
29280;SDS011;25048;49.590;11.026;2022-12-19T01:28:31;42.70;;;15.43;;
29280;SDS011;25048;49.590;11.026;2022-12-19T01:30:58;39.10;;;14.40;;
29280;SDS011;25048;49.590;11.026;2022-12-19T01:33:26;33.87;;;15.07;;
29280;SDS011;25048;49.590;11.026;2022-12-19T01:35:53;35.47;;;13.57;;
29280;SDS011;25048;49.590;11.026;2022-12-19T01:38:21;40.37;;;15.37;;
29280;SDS011;25048;49.590;11.026;2022-12-19T01:40:55;42.53;;;16.20;;
29280;SDS011;25048;49.590;11.026;2022-12-19T01:43:19;38.10;;;14.83;;
29280;SDS011;25048;49.590;11.026;2022-12-19T01:45:49;40.13;;;15.23;;
29280;SDS011;25048;49.590;11.026;2022-12-19T01:48:22;41.87;;;15.37;;
29280;SDS011;25048;49.590;11.026;2022-12-19T01:50:55;36.33;;;14.33;;
29280;SDS011;25048;49.590;11.026;2022-12-19T01:53:26;34.30;;;15.00;;
29280;SDS011;25048;49.590;11.026;2022-12-19T01:55:55;40.53;;;15.07;;
29280;SDS011;25048;49.590;11.026;2022-12-19T01:58:24;41.20;;;16.50;;
29280;SDS011;25048;49.590;11.026;2022-12-19T02:00:52;41.80;;;15.80;;
29280;SDS011;25048;49.590;11.026;2022-12-19T02:03:21;42.13;;;14.30;;
29280;SDS011;25048;49.590;11.026;2022-12-19T02:05:50;53.47;;;17.93;;
29280;SDS011;25048;49.590;11.026;2022-12-19T02:08:19;46.50;;;16.23;;
29280;SDS011;25048;49.590;11.026;2022-12-19T02:10:48;38.23;;;15.40;;
29280;SDS011;25048;49.590;11.026;2022-12-19T02:13:15;42.27;;;16.43;;
29280;SDS011;25048;49.590;11.026;2022-12-19T02:15:46;39.30;;;14.53;;
29280;SDS011;25048;49.590;11.026;2022-12-19T02:21:20;40.27;;;14.50;;
29280;SDS011;25048;49.590;11.026;2022-12-19T02:26:55;41.67;;;16.87;;
29280;SDS011;25048;49.590;11.026;2022-12-19T02:32:48;35.77;;;14.27;;
29280;SDS011;25048;49.590;11.026;2022-12-19T02:35:20;37.00;;;14.30;;
29280;SDS011;25048;49.590;11.026;2022-12-19T02:38:53;51.03;;;17.27;;
29280;SDS011;25048;49.590;11.026;2022-12-19T02:41:45;44.87;;;16.30;;
29280;SDS011;25048;49.590;11.026;2022-12-19T02:43:27;43.50;;;16.53;;
29280;SDS011;25048;49.590;11.026;2022-12-19T02:45:56;48.80;;;18.40;;
29280;SDS011;25048;49.590;11.026;2022-12-19T02:48:25;52.17;;;20.07;;
29280;SDS011;25048;49.590;11.026;2022-12-19T02:50:54;43.57;;;17.27;;
29280;SDS011;25048;49.590;11.026;2022-12-19T02:53:21;47.07;;;16.73;;
29280;SDS011;25048;49.590;11.026;2022-12-19T02:58:42;51.43;;;16.60;;
29280;SDS011;25048;49.590;11.026;2022-12-19T03:07:02;43.77;;;17.00;;
29280;SDS011;25048;49.590;11.026;2022-12-19T03:09:50;41.33;;;16.10;;
29280;SDS011;25048;49.590;11.026;2022-12-19T03:12:23;49.37;;;16.93;;
29280;SDS011;25048;49.590;11.026;2022-12-19T03:14:53;50.93;;;17.60;;
29280;SDS011;25048;49.590;11.026;2022-12-19T03:17:22;51.90;;;17.43;;
29280;SDS011;25048;49.590;11.026;2022-12-19T03:19:51;53.77;;;18.37;;
29280;SDS011;25048;49.590;11.026;2022-12-19T03:22:19;49.27;;;17.77;;
29280;SDS011;25048;49.590;11.026;2022-12-19T03:24:46;46.30;;;18.13;;
29280;SDS011;25048;49.590;11.026;2022-12-19T03:27:25;53.40;;;18.93;;
29280;SDS011;25048;49.590;11.026;2022-12-19T03:29:56;43.53;;;16.60;;
29280;SDS011;25048;49.590;11.026;2022-12-19T03:32:27;56.87;;;18.60;;
29280;SDS011;25048;49.590;11.026;2022-12-19T03:35:07;52.33;;;18.53;;
29280;SDS011;25048;49.590;11.026;2022-12-19T03:37:37;53.70;;;20.43;;
29280;SDS011;25048;49.590;11.026;2022-12-19T03:40:08;45.43;;;15.33;;
29280;SDS011;25048;49.590;11.026;2022-12-19T03:42:38;45.90;;;17.50;;
29280;SDS011;25048;49.590;11.026;2022-12-19T03:45:25;44.13;;;16.90;;
29280;SDS011;25048;49.590;11.026;2022-12-19T03:48:02;50.10;;;17.53;;
29280;SDS011;25048;49.590;11.026;2022-12-19T03:50:35;54.63;;;17.93;;
29280;SDS011;25048;49.590;11.026;2022-12-19T03:55:46;56.20;;;17.87;;
29280;SDS011;25048;49.590;11.026;2022-12-19T03:58:15;48.03;;;17.80;;
29280;SDS011;25048;49.590;11.026;2022-12-19T04:00:43;54.87;;;18.30;;
29280;SDS011;25048;49.590;11.026;2022-12-19T04:03:19;43.43;;;16.23;;
29280;SDS011;25048;49.590;11.026;2022-12-19T04:05:44;47.60;;;17.97;;
29280;SDS011;25048;49.590;11.026;2022-12-19T04:08:14;59.10;;;20.30;;
29280;SDS011;25048;49.590;11.026;2022-12-19T04:10:49;50.70;;;19.67;;
29280;SDS011;25048;49.590;11.026;2022-12-19T04:13:26;46.27;;;17.00;;
29280;SDS011;25048;49.590;11.026;2022-12-19T04:16:11;56.90;;;20.00;;
29280;SDS011;25048;49.590;11.026;2022-12-19T04:18:40;55.30;;;19.47;;
29280;SDS011;25048;49.590;11.026;2022-12-19T04:21:12;55.27;;;18.00;;
29280;SDS011;25048;49.590;11.026;2022-12-19T04:23:49;51.63;;;18.97;;
29280;SDS011;25048;49.590;11.026;2022-12-19T04:26:18;49.63;;;19.33;;
29280;SDS011;25048;49.590;11.026;2022-12-19T04:28:52;54.00;;;19.20;;
29280;SDS011;25048;49.590;11.026;2022-12-19T04:31:20;48.03;;;18.00;;
29280;SDS011;25048;49.590;11.026;2022-12-19T04:33:49;49.13;;;18.03;;
29280;SDS011;25048;49.590;11.026;2022-12-19T04:36:16;55.07;;;19.43;;
29280;SDS011;25048;49.590;11.026;2022-12-19T04:38:44;57.80;;;19.90;;
29280;SDS011;25048;49.590;11.026;2022-12-19T04:41:11;51.50;;;17.30;;
29280;SDS011;25048;49.590;11.026;2022-12-19T04:43:39;46.10;;;18.37;;
29280;SDS011;25048;49.590;11.026;2022-12-19T04:46:07;47.00;;;17.33;;
29280;SDS011;25048;49.590;11.026;2022-12-19T04:48:34;57.77;;;18.77;;
29280;SDS011;25048;49.590;11.026;2022-12-19T04:51:02;49.77;;;18.13;;
29280;SDS011;25048;49.590;11.026;2022-12-19T04:53:30;47.10;;;17.03;;
29280;SDS011;25048;49.590;11.026;2022-12-19T04:56:01;48.87;;;17.27;;
29280;SDS011;25048;49.590;11.026;2022-12-19T04:58:30;47.10;;;19.80;;
29280;SDS011;25048;49.590;11.026;2022-12-19T05:00:59;52.27;;;20.53;;
29280;SDS011;25048;49.590;11.026;2022-12-19T05:03:28;53.03;;;18.80;;
29280;SDS011;25048;49.590;11.026;2022-12-19T05:06:03;53.57;;;18.50;;
29280;SDS011;25048;49.590;11.026;2022-12-19T05:08:33;51.10;;;17.83;;
29280;SDS011;25048;49.590;11.026;2022-12-19T05:11:02;54.73;;;19.77;;
29280;SDS011;25048;49.590;11.026;2022-12-19T05:13:31;44.20;;;16.63;;
29280;SDS011;25048;49.590;11.026;2022-12-19T05:15:59;57.53;;;19.37;;
29280;SDS011;25048;49.590;11.026;2022-12-19T05:18:28;56.37;;;19.83;;
29280;SDS011;25048;49.590;11.026;2022-12-19T05:20:56;55.37;;;19.43;;
29280;SDS011;25048;49.590;11.026;2022-12-19T05:23:23;50.10;;;18.90;;
29280;SDS011;25048;49.590;11.026;2022-12-19T05:25:51;53.23;;;20.00;;
29280;SDS011;25048;49.590;11.026;2022-12-19T05:28:19;52.27;;;19.40;;
29280;SDS011;25048;49.590;11.026;2022-12-19T05:30:46;55.73;;;18.93;;
29280;SDS011;25048;49.590;11.026;2022-12-19T05:33:14;48.23;;;17.73;;
29280;SDS011;25048;49.590;11.026;2022-12-19T05:35:41;49.10;;;17.57;;
29280;SDS011;25048;49.590;11.026;2022-12-19T05:38:09;41.47;;;15.90;;
29280;SDS011;25048;49.590;11.026;2022-12-19T05:40:36;51.73;;;19.73;;
29280;SDS011;25048;49.590;11.026;2022-12-19T05:43:04;60.40;;;18.13;;
29280;SDS011;25048;49.590;11.026;2022-12-19T05:45:31;56.07;;;19.53;;
29280;SDS011;25048;49.590;11.026;2022-12-19T05:47:59;49.20;;;16.83;;
29280;SDS011;25048;49.590;11.026;2022-12-19T05:50:26;52.00;;;18.30;;
29280;SDS011;25048;49.590;11.026;2022-12-19T05:52:54;53.00;;;18.60;;
29280;SDS011;25048;49.590;11.026;2022-12-19T05:55:21;50.97;;;19.70;;
29280;SDS011;25048;49.590;11.026;2022-12-19T05:57:49;43.00;;;17.77;;
29280;SDS011;25048;49.590;11.026;2022-12-19T06:00:16;47.97;;;19.30;;
29280;SDS011;25048;49.590;11.026;2022-12-19T06:02:44;47.77;;;18.70;;
29280;SDS011;25048;49.590;11.026;2022-12-19T06:05:12;52.00;;;21.17;;
29280;SDS011;25048;49.590;11.026;2022-12-19T06:07:39;57.00;;;19.80;;
29280;SDS011;25048;49.590;11.026;2022-12-19T06:10:07;56.97;;;19.27;;
29280;SDS011;25048;49.590;11.026;2022-12-19T06:12:34;45.70;;;17.60;;
29280;SDS011;25048;49.590;11.026;2022-12-19T06:15:02;56.57;;;19.77;;
29280;SDS011;25048;49.590;11.026;2022-12-19T06:17:29;50.73;;;18.33;;
29280;SDS011;25048;49.590;11.026;2022-12-19T06:19:57;52.03;;;19.50;;
29280;SDS011;25048;49.590;11.026;2022-12-19T06:22:24;47.07;;;17.97;;
29280;SDS011;25048;49.590;11.026;2022-12-19T06:24:52;50.27;;;19.63;;
29280;SDS011;25048;49.590;11.026;2022-12-19T06:27:19;49.53;;;19.40;;
29280;SDS011;25048;49.590;11.026;2022-12-19T06:29:47;56.20;;;19.67;;
29280;SDS011;25048;49.590;11.026;2022-12-19T06:32:14;47.80;;;19.13;;
29280;SDS011;25048;49.590;11.026;2022-12-19T06:34:42;59.67;;;20.43;;
29280;SDS011;25048;49.590;11.026;2022-12-19T06:37:10;46.33;;;17.43;;
29280;SDS011;25048;49.590;11.026;2022-12-19T06:39:38;48.10;;;18.27;;
29280;SDS011;25048;49.590;11.026;2022-12-19T06:42:06;50.77;;;20.43;;
29280;SDS011;25048;49.590;11.026;2022-12-19T06:44:50;56.20;;;20.87;;
29280;SDS011;25048;49.590;11.026;2022-12-19T06:47:19;47.33;;;18.93;;
29280;SDS011;25048;49.590;11.026;2022-12-19T06:49:48;53.33;;;20.57;;
29280;SDS011;25048;49.590;11.026;2022-12-19T06:52:15;50.77;;;18.77;;
29280;SDS011;25048;49.590;11.026;2022-12-19T06:54:43;47.23;;;19.23;;
29280;SDS011;25048;49.590;11.026;2022-12-19T06:57:11;51.40;;;19.30;;
29280;SDS011;25048;49.590;11.026;2022-12-19T06:59:38;49.73;;;18.67;;
29280;SDS011;25048;49.590;11.026;2022-12-19T07:02:13;52.87;;;20.17;;
29280;SDS011;25048;49.590;11.026;2022-12-19T07:04:54;53.87;;;19.60;;
29280;SDS011;25048;49.590;11.026;2022-12-19T07:07:15;57.20;;;20.43;;
29280;SDS011;25048;49.590;11.026;2022-12-19T07:09:43;46.73;;;18.60;;
29280;SDS011;25048;49.590;11.026;2022-12-19T07:12:10;57.20;;;20.20;;
29280;SDS011;25048;49.590;11.026;2022-12-19T07:14:38;52.60;;;20.43;;
29280;SDS011;25048;49.590;11.026;2022-12-19T07:17:05;47.00;;;19.27;;
29280;SDS011;25048;49.590;11.026;2022-12-19T07:19:33;50.70;;;19.47;;
29280;SDS011;25048;49.590;11.026;2022-12-19T07:22:01;46.00;;;17.43;;
29280;SDS011;25048;49.590;11.026;2022-12-19T07:24:30;48.30;;;18.20;;
29280;SDS011;25048;49.590;11.026;2022-12-19T07:26:59;50.70;;;18.60;;
29280;SDS011;25048;49.590;11.026;2022-12-19T07:29:27;49.23;;;19.77;;
29280;SDS011;25048;49.590;11.026;2022-12-19T07:31:55;49.17;;;17.37;;
29280;SDS011;25048;49.590;11.026;2022-12-19T07:34:22;61.80;;;19.73;;
29280;SDS011;25048;49.590;11.026;2022-12-19T07:36:50;46.43;;;18.00;;
29280;SDS011;25048;49.590;11.026;2022-12-19T07:39:18;47.27;;;19.67;;
29280;SDS011;25048;49.590;11.026;2022-12-19T07:41:46;50.73;;;18.57;;
29280;SDS011;25048;49.590;11.026;2022-12-19T07:44:15;46.30;;;18.07;;
29280;SDS011;25048;49.590;11.026;2022-12-19T07:46:42;41.80;;;17.37;;
29280;SDS011;25048;49.590;11.026;2022-12-19T07:49:09;45.30;;;18.70;;
29280;SDS011;25048;49.590;11.026;2022-12-19T07:51:37;52.50;;;19.90;;
29280;SDS011;25048;49.590;11.026;2022-12-19T07:54:04;43.90;;;18.43;;
29280;SDS011;25048;49.590;11.026;2022-12-19T07:56:32;41.37;;;17.40;;
29280;SDS011;25048;49.590;11.026;2022-12-19T07:59:00;46.67;;;18.60;;
29280;SDS011;25048;49.590;11.026;2022-12-19T08:01:27;44.57;;;18.33;;
29280;SDS011;25048;49.590;11.026;2022-12-19T08:03:55;50.40;;;18.93;;
29280;SDS011;25048;49.590;11.026;2022-12-19T08:06:22;49.00;;;18.83;;
29280;SDS011;25048;49.590;11.026;2022-12-19T08:08:51;41.83;;;16.17;;
29280;SDS011;25048;49.590;11.026;2022-12-19T08:11:19;47.33;;;18.20;;
29280;SDS011;25048;49.590;11.026;2022-12-19T08:13:55;48.73;;;19.30;;
29280;SDS011;25048;49.590;11.026;2022-12-19T08:16:23;47.73;;;17.80;;
29280;SDS011;25048;49.590;11.026;2022-12-19T08:18:52;51.77;;;18.27;;
29280;SDS011;25048;49.590;11.026;2022-12-19T08:21:22;50.07;;;19.13;;
29280;SDS011;25048;49.590;11.026;2022-12-19T08:23:50;41.53;;;16.93;;
29280;SDS011;25048;49.590;11.026;2022-12-19T08:26:18;52.87;;;19.57;;
29280;SDS011;25048;49.590;11.026;2022-12-19T08:28:48;48.07;;;16.77;;
29280;SDS011;25048;49.590;11.026;2022-12-19T08:31:18;46.47;;;18.30;;
29280;SDS011;25048;49.590;11.026;2022-12-19T08:33:46;44.20;;;18.47;;
29280;SDS011;25048;49.590;11.026;2022-12-19T08:36:14;47.57;;;18.67;;
29280;SDS011;25048;49.590;11.026;2022-12-19T08:38:45;44.53;;;18.57;;
29280;SDS011;25048;49.590;11.026;2022-12-19T08:41:14;42.60;;;16.80;;
29280;SDS011;25048;49.590;11.026;2022-12-19T08:43:46;39.63;;;17.17;;
29280;SDS011;25048;49.590;11.026;2022-12-19T08:46:18;45.40;;;17.07;;
29280;SDS011;25048;49.590;11.026;2022-12-19T08:48:46;46.73;;;19.30;;
29280;SDS011;25048;49.590;11.026;2022-12-19T08:51:15;45.77;;;18.40;;
29280;SDS011;25048;49.590;11.026;2022-12-19T08:53:43;44.57;;;17.60;;
29280;SDS011;25048;49.590;11.026;2022-12-19T08:56:14;45.67;;;18.40;;
29280;SDS011;25048;49.590;11.026;2022-12-19T08:58:44;46.27;;;18.10;;
29280;SDS011;25048;49.590;11.026;2022-12-19T09:01:13;40.10;;;17.20;;
29280;SDS011;25048;49.590;11.026;2022-12-19T09:03:44;38.60;;;15.87;;
29280;SDS011;25048;49.590;11.026;2022-12-19T09:06:12;42.67;;;17.30;;
29280;SDS011;25048;49.590;11.026;2022-12-19T09:08:41;42.50;;;17.57;;
29280;SDS011;25048;49.590;11.026;2022-12-19T09:11:11;42.90;;;17.57;;
29280;SDS011;25048;49.590;11.026;2022-12-19T09:13:43;42.43;;;17.80;;
29280;SDS011;25048;49.590;11.026;2022-12-19T09:18:46;41.03;;;17.50;;
29280;SDS011;25048;49.590;11.026;2022-12-19T09:21:15;43.30;;;16.80;;
29280;SDS011;25048;49.590;11.026;2022-12-19T09:23:48;41.87;;;16.50;;
29280;SDS011;25048;49.590;11.026;2022-12-19T09:26:18;44.80;;;17.80;;
29280;SDS011;25048;49.590;11.026;2022-12-19T09:28:47;46.93;;;16.70;;
29280;SDS011;25048;49.590;11.026;2022-12-19T09:31:17;38.70;;;15.57;;
29280;SDS011;25048;49.590;11.026;2022-12-19T09:33:46;46.97;;;17.90;;
29280;SDS011;25048;49.590;11.026;2022-12-19T09:36:15;43.87;;;18.17;;
29280;SDS011;25048;49.590;11.026;2022-12-19T09:38:44;42.17;;;18.03;;
29280;SDS011;25048;49.590;11.026;2022-12-19T09:49:44;42.47;;;17.73;;
29280;SDS011;25048;49.590;11.026;2022-12-19T09:52:20;44.97;;;16.73;;
29280;SDS011;25048;49.590;11.026;2022-12-19T09:57:46;45.90;;;18.43;;
29280;SDS011;25048;49.590;11.026;2022-12-19T10:00:18;36.93;;;12.37;;
29280;SDS011;25048;49.590;11.026;2022-12-19T10:03:04;43.37;;;18.17;;
29280;SDS011;25048;49.590;11.026;2022-12-19T10:05:38;43.73;;;16.97;;
29280;SDS011;25048;49.590;11.026;2022-12-19T10:08:21;43.47;;;17.53;;
29280;SDS011;25048;49.590;11.026;2022-12-19T10:13:31;42.73;;;17.00;;
29280;SDS011;25048;49.590;11.026;2022-12-19T10:18:49;46.70;;;20.17;;
29280;SDS011;25048;49.590;11.026;2022-12-19T10:21:34;38.17;;;17.10;;
29280;SDS011;25048;49.590;11.026;2022-12-19T10:26:51;38.97;;;15.93;;
29280;SDS011;25048;49.590;11.026;2022-12-19T10:32:32;41.63;;;15.70;;
29280;SDS011;25048;49.590;11.026;2022-12-19T10:35:01;36.10;;;15.90;;
29280;SDS011;25048;49.590;11.026;2022-12-19T10:37:38;43.63;;;17.17;;
29280;SDS011;25048;49.590;11.026;2022-12-19T10:40:19;43.03;;;17.87;;
29280;SDS011;25048;49.590;11.026;2022-12-19T10:42:50;50.53;;;18.43;;
29280;SDS011;25048;49.590;11.026;2022-12-19T10:45:27;46.23;;;18.67;;
29280;SDS011;25048;49.590;11.026;2022-12-19T10:47:56;36.30;;;16.47;;
29280;SDS011;25048;49.590;11.026;2022-12-19T10:50:25;36.70;;;14.90;;
29280;SDS011;25048;49.590;11.026;2022-12-19T10:53:04;41.27;;;16.40;;
29280;SDS011;25048;49.590;11.026;2022-12-19T10:55:36;44.73;;;18.57;;
29280;SDS011;25048;49.590;11.026;2022-12-19T10:58:11;45.20;;;16.93;;
29280;SDS011;25048;49.590;11.026;2022-12-19T11:03:42;41.40;;;15.90;;
29280;SDS011;25048;49.590;11.026;2022-12-19T11:14:39;44.77;;;18.03;;
29280;SDS011;25048;49.590;11.026;2022-12-19T11:17:24;48.23;;;18.37;;
29280;SDS011;25048;49.590;11.026;2022-12-19T11:19:55;41.53;;;17.57;;
29280;SDS011;25048;49.590;11.026;2022-12-19T11:22:26;41.20;;;16.80;;
29280;SDS011;25048;49.590;11.026;2022-12-19T11:24:56;50.67;;;18.73;;
29280;SDS011;25048;49.590;11.026;2022-12-19T11:32:48;40.30;;;17.50;;
29280;SDS011;25048;49.590;11.026;2022-12-19T11:35:19;45.27;;;16.47;;
29280;SDS011;25048;49.590;11.026;2022-12-19T11:37:51;39.33;;;16.33;;
29280;SDS011;25048;49.590;11.026;2022-12-19T11:40:23;41.33;;;16.73;;
29280;SDS011;25048;49.590;11.026;2022-12-19T11:42:58;47.77;;;16.73;;
29280;SDS011;25048;49.590;11.026;2022-12-19T11:48:28;40.37;;;17.60;;
29280;SDS011;25048;49.590;11.026;2022-12-19T11:51:08;42.47;;;16.93;;
29280;SDS011;25048;49.590;11.026;2022-12-19T11:53:50;36.63;;;16.43;;
29280;SDS011;25048;49.590;11.026;2022-12-19T11:56:19;38.70;;;16.83;;
29280;SDS011;25048;49.590;11.026;2022-12-19T11:58:52;40.90;;;17.60;;
29280;SDS011;25048;49.590;11.026;2022-12-19T12:04:19;42.37;;;17.10;;
29280;SDS011;25048;49.590;11.026;2022-12-19T12:06:52;39.43;;;15.60;;
29280;SDS011;25048;49.590;11.026;2022-12-19T12:09:34;41.40;;;17.67;;
29280;SDS011;25048;49.590;11.026;2022-12-19T12:12:29;43.93;;;17.30;;
29280;SDS011;25048;49.590;11.026;2022-12-19T12:17:29;45.10;;;16.47;;
29280;SDS011;25048;49.590;11.026;2022-12-19T12:25:24;36.53;;;16.47;;
29280;SDS011;25048;49.590;11.026;2022-12-19T12:28:16;35.90;;;15.77;;
29280;SDS011;25048;49.590;11.026;2022-12-19T12:30:47;42.77;;;16.43;;
29280;SDS011;25048;49.590;11.026;2022-12-19T12:36:05;35.33;;;15.57;;
29280;SDS011;25048;49.590;11.026;2022-12-19T12:44:34;34.90;;;14.60;;
29280;SDS011;25048;49.590;11.026;2022-12-19T12:47:04;35.80;;;13.63;;
29280;SDS011;25048;49.590;11.026;2022-12-19T12:49:35;42.37;;;15.50;;
29280;SDS011;25048;49.590;11.026;2022-12-19T12:52:10;33.57;;;14.73;;
29280;SDS011;25048;49.590;11.026;2022-12-19T12:54:46;34.23;;;14.57;;
29280;SDS011;25048;49.590;11.026;2022-12-19T13:03:01;42.30;;;16.30;;
29280;SDS011;25048;49.590;11.026;2022-12-19T13:08:38;34.17;;;14.23;;
29280;SDS011;25048;49.590;11.026;2022-12-19T13:10:56;39.53;;;16.07;;
29280;SDS011;25048;49.590;11.026;2022-12-19T13:19:14;36.47;;;15.87;;
29280;SDS011;25048;49.590;11.026;2022-12-19T13:27:45;39.43;;;17.27;;
29280;SDS011;25048;49.590;11.026;2022-12-19T13:32:33;45.10;;;17.40;;
29280;SDS011;25048;49.590;11.026;2022-12-19T13:37:46;42.57;;;17.20;;
29280;SDS011;25048;49.590;11.026;2022-12-19T13:40:12;46.20;;;18.53;;
29280;SDS011;25048;49.590;11.026;2022-12-19T13:43:01;33.83;;;15.30;;
29280;SDS011;25048;49.590;11.026;2022-12-19T13:48:26;30.40;;;13.80;;
29280;SDS011;25048;49.590;11.026;2022-12-19T13:51:05;35.53;;;15.47;;
29280;SDS011;25048;49.590;11.026;2022-12-19T13:53:34;36.73;;;14.67;;
29280;SDS011;25048;49.590;11.026;2022-12-19T13:56:13;37.20;;;16.20;;
29280;SDS011;25048;49.590;11.026;2022-12-19T13:58:42;33.93;;;14.63;;
29280;SDS011;25048;49.590;11.026;2022-12-19T14:01:07;35.63;;;14.33;;
29280;SDS011;25048;49.590;11.026;2022-12-19T14:03:37;36.90;;;15.27;;
29280;SDS011;25048;49.590;11.026;2022-12-19T14:08:45;35.73;;;15.70;;
29280;SDS011;25048;49.590;11.026;2022-12-19T14:11:15;32.00;;;14.07;;
29280;SDS011;25048;49.590;11.026;2022-12-19T14:13:46;33.80;;;14.80;;
29280;SDS011;25048;49.590;11.026;2022-12-19T14:16:33;37.47;;;14.63;;
29280;SDS011;25048;49.590;11.026;2022-12-19T14:19:00;34.93;;;15.77;;
29280;SDS011;25048;49.590;11.026;2022-12-19T14:21:28;35.37;;;15.27;;
29280;SDS011;25048;49.590;11.026;2022-12-19T14:24:09;34.60;;;14.60;;
29280;SDS011;25048;49.590;11.026;2022-12-19T14:26:38;37.43;;;15.57;;
29280;SDS011;25048;49.590;11.026;2022-12-19T14:29:12;33.30;;;13.90;;
29280;SDS011;25048;49.590;11.026;2022-12-19T14:31:41;34.37;;;14.57;;
29280;SDS011;25048;49.590;11.026;2022-12-19T14:34:16;35.37;;;15.00;;
29280;SDS011;25048;49.590;11.026;2022-12-19T14:36:41;30.63;;;13.63;;
29280;SDS011;25048;49.590;11.026;2022-12-19T14:39:15;28.97;;;13.20;;
29280;SDS011;25048;49.590;11.026;2022-12-19T14:41:44;34.40;;;14.27;;
29280;SDS011;25048;49.590;11.026;2022-12-19T14:44:42;32.20;;;14.47;;
29280;SDS011;25048;49.590;11.026;2022-12-19T14:47:13;31.83;;;13.77;;
29280;SDS011;25048;49.590;11.026;2022-12-19T14:50:00;30.97;;;13.53;;
29280;SDS011;25048;49.590;11.026;2022-12-19T14:57:53;36.43;;;14.60;;
29280;SDS011;25048;49.590;11.026;2022-12-19T15:00:24;36.63;;;14.27;;
29280;SDS011;25048;49.590;11.026;2022-12-19T15:02:52;29.13;;;13.07;;
29280;SDS011;25048;49.590;11.026;2022-12-19T15:05:21;30.50;;;14.40;;
29280;SDS011;25048;49.590;11.026;2022-12-19T15:07:49;31.20;;;13.20;;
29280;SDS011;25048;49.590;11.026;2022-12-19T15:10:23;31.83;;;12.77;;
29280;SDS011;25048;49.590;11.026;2022-12-19T15:15:51;36.33;;;14.20;;
29280;SDS011;25048;49.590;11.026;2022-12-19T15:18:25;31.83;;;13.50;;
29280;SDS011;25048;49.590;11.026;2022-12-19T15:20:55;35.93;;;14.37;;
29280;SDS011;25048;49.590;11.026;2022-12-19T15:23:24;27.80;;;12.27;;
29280;SDS011;25048;49.590;11.026;2022-12-19T15:25:53;35.80;;;14.00;;
29280;SDS011;25048;49.590;11.026;2022-12-19T15:28:25;29.40;;;13.67;;
29280;SDS011;25048;49.590;11.026;2022-12-19T15:31:00;31.30;;;13.30;;
29280;SDS011;25048;49.590;11.026;2022-12-19T15:33:29;34.93;;;14.07;;
29280;SDS011;25048;49.590;11.026;2022-12-19T15:35:57;31.37;;;13.63;;
29280;SDS011;25048;49.590;11.026;2022-12-19T15:38:25;35.87;;;14.63;;
29280;SDS011;25048;49.590;11.026;2022-12-19T15:40:52;34.53;;;13.40;;
29280;SDS011;25048;49.590;11.026;2022-12-19T15:43:20;32.53;;;12.80;;
29280;SDS011;25048;49.590;11.026;2022-12-19T15:45:50;31.90;;;13.67;;
29280;SDS011;25048;49.590;11.026;2022-12-19T15:48:19;34.00;;;14.37;;
29280;SDS011;25048;49.590;11.026;2022-12-19T15:50:47;31.37;;;13.50;;
29280;SDS011;25048;49.590;11.026;2022-12-19T15:53:20;32.73;;;12.87;;
29280;SDS011;25048;49.590;11.026;2022-12-19T15:55:49;33.80;;;14.03;;
29280;SDS011;25048;49.590;11.026;2022-12-19T15:58:19;33.07;;;13.27;;
29280;SDS011;25048;49.590;11.026;2022-12-19T16:00:57;29.20;;;12.63;;
29280;SDS011;25048;49.590;11.026;2022-12-19T16:03:20;36.60;;;14.73;;
29280;SDS011;25048;49.590;11.026;2022-12-19T16:05:47;37.87;;;14.30;;
29280;SDS011;25048;49.590;11.026;2022-12-19T16:08:16;34.90;;;14.27;;
29280;SDS011;25048;49.590;11.026;2022-12-19T16:10:50;34.27;;;13.93;;
29280;SDS011;25048;49.590;11.026;2022-12-19T16:13:25;34.60;;;12.87;;
29280;SDS011;25048;49.590;11.026;2022-12-19T16:15:55;36.70;;;15.50;;
29280;SDS011;25048;49.590;11.026;2022-12-19T16:18:23;40.67;;;15.70;;
29280;SDS011;25048;49.590;11.026;2022-12-19T16:20:51;36.30;;;13.87;;
29280;SDS011;25048;49.590;11.026;2022-12-19T16:23:19;33.67;;;14.80;;
29280;SDS011;25048;49.590;11.026;2022-12-19T16:25:48;36.53;;;16.03;;
29280;SDS011;25048;49.590;11.026;2022-12-19T16:30:47;45.40;;;16.53;;
29280;SDS011;25048;49.590;11.026;2022-12-19T16:33:17;39.83;;;17.07;;
29280;SDS011;25048;49.590;11.026;2022-12-19T16:35:45;35.07;;;14.53;;